Flight Track Log - Related Links

Times and Time Zones

All times are in EDT time to prevent confusion due to time zone crossing. See the GGA1 flight status page for this flight to view local times or setup timezone preferences in your user account.

Time Position Orientation Groundspeed Altitude Reporting Facility
EDT Latitude Longitude Course Direction KTS MPH feet Rate Location/Type
17:48 32.2858 -81.2878 316° Northwest 205 236 6,500  Level Jacksonville Center
17:49 32.3239 -81.3389 311° West 210 242 7,700 1,091 Climbing Jacksonville Center
17:50 32.3399 -81.4412 315° West  Level FlightAware Approximate
17:50 32.3581 -81.3850 311° West 210 242 8,700  Level Jacksonville Center
17:51 32.3833 -81.4933 315° West  Level FlightAware Approximate
17:51 32.3981 -81.4311 316° Northwest 210 242 9,800  Level Jacksonville Center
17:52 32.4270 -81.5451 316° Northwest  Level FlightAware Approximate
17:52 32.4469 -81.4844 317° Northwest 210 242 11,100  Level Jacksonville Center
17:53 32.4715 -81.5959 316° Northwest  Level FlightAware Approximate
17:53 32.4850 -81.5306 314° West 210 242 12,500  Level Jacksonville Center
17:54 32.5189 -81.5744 312° West 210 242 13,800 750 Climbing Jacksonville Center
17:55 32.5675 -81.6331 315° West 218 251 14,000 59 Climbing Jacksonville Center
17:57 32.6817 -81.7658 316° Northwest 243 280 14,000  Level Atlanta Center
17:58 32.7306 -81.8239 315° West 243 280 14,000  Level Atlanta Center
17:59 32.7797 -81.8819 315° West 243 280 14,000  Level Atlanta Center
18:00 32.8289 -81.9450 313° West 243 280 14,000  Level Atlanta Center
18:01 32.8756 -82.0033 314° West 243 280 14,000  Level Atlanta Center
18:02 32.9247 -82.0614 315° West 243 280 14,000  Level Atlanta Center
18:03 32.9736 -82.1222 314° West 243 280 14,000  Level Atlanta Center
18:04 33.0203 -82.1808 314° West 243 280 14,000  Level Atlanta Center
18:05 33.0692 -82.2392 315° West 243 280 14,000  Level Atlanta Center
18:06 33.1161 -82.2978 314° West 243 280 14,000 -50 Level Atlanta Center
18:07 33.1650 -82.3564 315° West 243 280 13,900 -500 Descending Atlanta Center
18:08 33.2158 -82.4225 313° West 243 280 13,000 -850 Descending Atlanta Center
18:09 33.2711 -82.4883 315° West 253 291 12,200 -800 Descending Atlanta Center
18:10 33.3133 -82.5375 316° Northwest 265 305 11,400 -1,000 Descending Atlanta Center
18:11 33.3747 -82.6158 313° West 272 313 10,200 -1,050 Descending Atlanta Center
18:12 33.4256 -82.6797 314° West 267 307 9,300 -950 Descending Atlanta Center
18:13 33.4764 -82.7414 315° West 262 302 8,300 -1,000 Descending Atlanta Center
18:14 33.5272 -82.8028 315° West 262 302 7,300 -1,050 Descending Atlanta Center
18:15 33.5778 -82.8669 313° West 262 302 6,200 -700 Descending Atlanta Center
18:16 33.6286 -82.9261 316° Northwest 262 302 5,900 -150 Descending Atlanta Center
18:17 33.6728 -82.9856 312° West 257 296 5,900 -74 Level Atlanta Center
18:19 33.7500 -83.0833 314° West 239 275 5,700 -556 Descending Atlanta TRACON
18:20 33.8000 -83.1500 312° West 262 302 4,400 -1,250 Descending Atlanta TRACON
18:21 33.8667 -83.2000 328° Northwest 263 303 3,200 -1,150 Descending Atlanta TRACON
18:22 33.9167 -83.2500 320° Northwest 258 297 2,100 -1,000 Descending Atlanta TRACON
18:23 33.9500 -83.3000 309° West 159 183 1,200 -900 Descending Atlanta TRACON

Login

Don't have an account? Register now (free) for customized features, flight alerts, and more!